createdAt,value
2023-05-24T00:01:34.287Z,96818.94
2023-05-24T00:04:11.249Z,96809.56
2023-05-24T00:06:39.662Z,96828.38
2023-05-24T00:09:08.063Z,96843.38
2023-05-24T00:11:36.309Z,96819.66
2023-05-24T00:14:04.610Z,96800.00
2023-05-24T00:16:32.912Z,96811.38
2023-05-24T00:19:01.148Z,96845.66
2023-05-24T00:21:32.105Z,96808.09
2023-05-24T00:24:00.380Z,96805.13
2023-05-24T00:26:28.761Z,96778.44
2023-05-24T00:28:58.091Z,96821.28
2023-05-24T00:31:26.339Z,96806.78
2023-05-24T00:33:54.674Z,96814.88
2023-05-24T00:36:22.984Z,96805.81
2023-05-24T00:38:52.856Z,96812.41
2023-05-24T00:41:21.137Z,96795.59
2023-05-24T00:43:49.444Z,96796.09
2023-05-24T00:46:22.336Z,96784.38
2023-05-24T00:48:51.577Z,96776.47
2023-05-24T00:51:20.105Z,96847.66
2023-05-24T00:53:50.704Z,96812.72
2023-05-24T00:56:20.588Z,96757.69
2023-05-24T00:58:50.497Z,96793.28
2023-05-24T01:01:18.816Z,96801.34
2023-05-24T01:03:47.292Z,96816.34
2023-05-24T01:06:17.717Z,96775.50
2023-05-24T01:09:21.258Z,96767.56
2023-05-24T01:12:09.508Z,96764.28
2023-05-24T01:14:47.941Z,96768.88
2023-05-24T01:17:24.061Z,96790.47
2023-05-24T01:20:00.021Z,96795.56
2023-05-24T01:23:08.340Z,96750.09
2023-05-24T01:25:49.658Z,96763.44
2023-05-24T01:28:20.468Z,96796.59
2023-05-24T01:30:49.397Z,96770.56
2023-05-24T01:33:17.936Z,96747.47
2023-05-24T01:35:46.363Z,96735.28
2023-05-24T01:38:15.886Z,96749.16
2023-05-24T01:40:45.604Z,96768.72
2023-05-24T01:43:23.113Z,96729.03
2023-05-24T01:46:08.583Z,96704.69
2023-05-24T01:48:50.661Z,96768.25
2023-05-24T01:51:24.060Z,96778.97
2023-05-24T01:53:53.641Z,96762.81
2023-05-24T01:56:22.952Z,96786.84
2023-05-24T01:58:55.915Z,96811.72
2023-05-24T02:01:26.424Z,96772.03
2023-05-24T02:03:55.220Z,96815.31
2023-05-24T02:06:23.484Z,96790.78
2023-05-24T02:08:55.260Z,96783.06
2023-05-24T02:11:23.502Z,96790.97
2023-05-24T02:13:53.112Z,96810.25
2023-05-24T02:16:23.887Z,96805.94
2023-05-24T02:18:52.160Z,96779.09
2023-05-24T02:21:20.463Z,96796.88
2023-05-24T02:23:48.746Z,96762.31
2023-05-24T02:26:18.516Z,96807.44
2023-05-24T02:28:48.256Z,96847.31
2023-05-24T02:31:18.109Z,96797.84
2023-05-24T02:33:46.417Z,96823.53
2023-05-24T02:36:14.725Z,96791.94
2023-05-24T02:38:43.049Z,96798.22
2023-05-24T02:41:11.939Z,96797.22
2023-05-24T02:43:40.315Z,96796.03
2023-05-24T02:46:08.625Z,96812.66
2023-05-24T02:48:38.268Z,96820.22
2023-05-24T02:51:07.059Z,96791.72
2023-05-24T02:53:35.346Z,96837.38
2023-05-24T02:56:03.669Z,96818.03
2023-05-24T02:58:33.816Z,96825.47
2023-05-24T03:01:02.718Z,96803.06
2023-05-24T03:03:31.191Z,96786.28
2023-05-24T03:06:01.295Z,96796.75
2023-05-24T03:08:29.826Z,96813.19
2023-05-24T03:10:58.115Z,96815.66
2023-05-24T03:13:26.373Z,96795.69
2023-05-24T03:15:54.709Z,96754.25
2023-05-24T03:18:23.080Z,96807.25
2023-05-24T03:20:51.502Z,96799.00
2023-05-24T03:23:21.112Z,96821.69
2023-05-24T03:25:50.373Z,96813.25
2023-05-24T03:28:19.116Z,96819.66
2023-05-24T03:30:47.577Z,96807.16
2023-05-24T03:33:16.367Z,96824.31
2023-05-24T03:35:44.838Z,96795.88
2023-05-24T03:38:13.258Z,96828.94
2023-05-24T03:40:46.505Z,96765.69
2023-05-24T03:43:18.800Z,96798.47
2023-05-24T03:45:54.888Z,96768.41
2023-05-24T03:48:23.245Z,96804.72
2023-05-24T03:50:53.081Z,96829.28
2023-05-24T03:53:23.356Z,96792.28
2023-05-24T03:55:53.328Z,96842.28
2023-05-24T03:58:23.665Z,96829.78
2023-05-24T04:00:52.350Z,96860.53
2023-05-24T04:03:21.370Z,96858.53
2023-05-24T04:05:50.267Z,96807.06
2023-05-24T04:08:18.699Z,96804.06
2023-05-24T04:10:47.227Z,96830.44
2023-05-24T04:13:16.919Z,96826.59
2023-05-24T04:15:45.615Z,96767.13
2023-05-24T04:18:13.988Z,96844.44
2023-05-24T04:20:42.595Z,96765.88
2023-05-24T04:23:11.468Z,96803.59
2023-05-24T04:25:39.985Z,96767.75
2023-05-24T04:28:10.236Z,96801.75
2023-05-24T04:30:40.437Z,96822.56
2023-05-24T04:33:09.356Z,96822.13
2023-05-24T04:35:38.197Z,96797.22
2023-05-24T04:38:06.438Z,96841.91
2023-05-24T04:40:34.730Z,96771.22
2023-05-24T04:43:03.511Z,96824.75
2023-05-24T04:45:33.101Z,96805.09
2023-05-24T04:48:02.776Z,96785.28
2023-05-24T04:50:31.012Z,96825.44
2023-05-24T04:52:59.274Z,96798.31
2023-05-24T04:55:27.896Z,96798.25
2023-05-24T04:57:56.107Z,96818.22
2023-05-24T05:00:24.282Z,96844.41
2023-05-24T05:02:52.712Z,96788.09
2023-05-24T05:05:22.493Z,96808.44
2023-05-24T05:07:50.694Z,96817.44
2023-05-24T05:10:19.454Z,96806.13
2023-05-24T05:12:48.865Z,96804.28
2023-05-24T05:15:17.114Z,96815.34
2023-05-24T05:17:45.691Z,96836.19
2023-05-24T05:20:14.045Z,96794.59
2023-05-24T05:22:48.400Z,96821.03
2023-05-24T05:25:16.949Z,96828.66
2023-05-24T05:27:45.258Z,96802.41
2023-05-24T05:30:14.402Z,96757.16
2023-05-24T05:32:42.693Z,96820.41
2023-05-24T05:35:11.321Z,96863.41
2023-05-24T05:37:39.532Z,96778.06
2023-05-24T05:40:10.786Z,96793.03
2023-05-24T05:42:39.057Z,96823.78
2023-05-24T05:45:09.306Z,96769.81
2023-05-24T05:47:37.752Z,96775.78
2023-05-24T05:50:07.067Z,96784.44
2023-05-24T05:52:35.372Z,96797.50
2023-05-24T05:55:03.752Z,96809.91
2023-05-24T05:57:33.336Z,96772.69
2023-05-24T06:00:01.816Z,96791.94
2023-05-24T06:02:40.370Z,96837.88
2023-05-24T06:05:09.883Z,96785.22
2023-05-24T06:07:38.770Z,96770.75
2023-05-24T06:10:08.647Z,96789.72
2023-05-24T06:12:38.831Z,96800.13
2023-05-24T06:15:09.297Z,96818.19
2023-05-24T06:17:38.131Z,96826.69
2023-05-24T06:20:08.255Z,96837.84
2023-05-24T06:22:37.670Z,96822.19
2023-05-24T06:25:07.285Z,96826.22
2023-05-24T06:27:36.989Z,96856.75
2023-05-24T06:30:06.967Z,96936.38
2023-05-24T06:32:35.708Z,96838.56
2023-05-24T06:35:04.501Z,96803.38
2023-05-24T06:37:33.578Z,96821.78
2023-05-24T06:40:01.891Z,96751.59
2023-05-24T06:42:30.201Z,96876.94
2023-05-24T06:44:59.804Z,96844.41
2023-05-24T06:47:28.221Z,96866.03
2023-05-24T06:49:57.085Z,96830.88
2023-05-24T06:52:25.413Z,96823.97
2023-05-24T06:54:54.044Z,96863.06
2023-05-24T06:57:22.520Z,96835.72
2023-05-24T06:59:50.935Z,96880.19
2023-05-24T07:02:26.484Z,96838.09
2023-05-24T07:04:55.080Z,96838.34
2023-05-24T07:07:23.400Z,96850.44
2023-05-24T07:09:51.872Z,96892.94
2023-05-24T07:12:20.170Z,96882.09
2023-05-24T07:14:48.995Z,96878.38
2023-05-24T07:17:17.286Z,96898.28
2023-05-24T07:19:46.878Z,96851.56
2023-05-24T07:22:15.230Z,96885.28
2023-05-24T07:24:43.663Z,96922.38
2023-05-24T07:27:11.947Z,96750.53
2023-05-24T07:29:40.197Z,96912.56
2023-05-24T07:32:09.260Z,96865.59
2023-05-24T07:34:39.593Z,96908.00
2023-05-24T07:37:09.265Z,96894.16
2023-05-24T07:39:38.082Z,96874.59
2023-05-24T07:42:06.870Z,96903.13
2023-05-24T07:44:35.128Z,96938.72
2023-05-24T07:47:03.529Z,96874.59
2023-05-24T07:49:31.744Z,96844.06
2023-05-24T07:52:01.127Z,96918.03
2023-05-24T07:54:30.809Z,96926.34
2023-05-24T07:56:59.006Z,96929.22
2023-05-24T07:59:27.305Z,96899.78
2023-05-24T08:01:55.807Z,96912.22
2023-05-24T08:04:24.021Z,96913.88
2023-05-24T08:06:59.371Z,96898.91
2023-05-24T08:09:29.691Z,96822.50
2023-05-24T08:11:59.277Z,96915.13
2023-05-24T08:14:27.524Z,96893.84
2023-05-24T08:16:55.848Z,96889.72
2023-05-24T08:19:24.424Z,96906.03
2023-05-24T08:21:53.138Z,96938.03
2023-05-24T08:24:25.919Z,96934.84
2023-05-24T08:26:54.155Z,96914.25
2023-05-24T08:29:24.132Z,96920.22
2023-05-24T08:31:52.976Z,96941.56
2023-05-24T08:34:21.509Z,96903.28
2023-05-24T08:36:50.069Z,96912.00
2023-05-24T08:39:18.329Z,96909.75
2023-05-24T08:41:57.385Z,96827.00
2023-05-24T08:44:48.463Z,96913.03
2023-05-24T08:47:17.513Z,96938.25
2023-05-24T08:49:47.540Z,96946.09
2023-05-24T08:52:16.010Z,96928.75
2023-05-24T08:54:44.898Z,96932.97
2023-05-24T08:57:13.222Z,96862.72
2023-05-24T08:59:43.330Z,96919.66
2023-05-24T09:02:16.182Z,96917.91
2023-05-24T09:04:45.425Z,96910.16
2023-05-24T09:07:15.575Z,96932.47
2023-05-24T09:09:49.230Z,96920.25
2023-05-24T09:12:35.641Z,96944.84
2023-05-24T09:15:09.965Z,96858.78
2023-05-24T09:17:40.652Z,96933.94
2023-05-24T09:20:11.490Z,96913.94
2023-05-24T09:22:44.033Z,96922.69
2023-05-24T09:25:15.465Z,96841.31
2023-05-24T09:27:48.927Z,96956.44
2023-05-24T09:30:19.084Z,96945.41
2023-05-24T09:32:57.478Z,96935.88
2023-05-24T09:35:26.927Z,96938.22
2023-05-24T09:37:59.960Z,96899.69
2023-05-24T09:40:30.073Z,96938.06
2023-05-24T09:43:07.368Z,96880.78
2023-05-24T09:45:44.410Z,96926.09
2023-05-24T09:48:14.033Z,96888.13
2023-05-24T09:50:42.578Z,96945.09
2023-05-24T09:53:11.071Z,96955.06
2023-05-24T09:55:39.998Z,96898.81
2023-05-24T09:58:09.986Z,96967.84
2023-05-24T10:00:42.287Z,96967.66
2023-05-24T10:03:13.296Z,96970.44
2023-05-24T10:05:45.724Z,96949.47
2023-05-24T10:08:15.010Z,96939.16
2023-05-24T10:10:44.538Z,96945.78
2023-05-24T10:13:15.956Z,96913.03
2023-05-24T10:15:46.026Z,96914.34
2023-05-24T10:18:14.775Z,96912.59
2023-05-24T10:20:44.393Z,96926.94
2023-05-24T10:23:17.544Z,96962.94
2023-05-24T10:25:52.161Z,96979.09
2023-05-24T10:28:23.559Z,96955.19
2023-05-24T10:31:03.680Z,96944.94
2023-05-24T10:33:36.203Z,96870.41
2023-05-24T10:36:09.320Z,96935.53
2023-05-24T10:38:40.774Z,96937.69
2023-05-24T10:41:09.792Z,96946.13
2023-05-24T10:43:38.943Z,96926.47
2023-05-24T10:46:11.301Z,96956.53
2023-05-24T10:48:41.185Z,96926.09
2023-05-24T10:51:36.855Z,96924.13
2023-05-24T10:54:17.450Z,96906.91
2023-05-24T10:56:48.571Z,97024.88
2023-05-24T10:59:35.121Z,96943.09
2023-05-24T11:02:09.842Z,96921.66
2023-05-24T11:04:43.111Z,96903.44
2023-05-24T11:07:13.260Z,96900.56
2023-05-24T11:09:46.535Z,96938.41
2023-05-24T11:12:17.787Z,96879.22
2023-05-24T11:14:50.413Z,96894.88
2023-05-24T11:17:24.321Z,96931.63
2023-05-24T11:19:54.366Z,96932.81
2023-05-24T11:22:25.770Z,96900.03
2023-05-24T11:24:54.779Z,96864.22
2023-05-24T11:27:23.407Z,96901.34
2023-05-24T11:29:52.117Z,96911.84
2023-05-24T11:32:24.182Z,96871.06
2023-05-24T11:34:52.698Z,96914.16
2023-05-24T11:37:28.687Z,96876.03
2023-05-24T11:40:06.412Z,96884.34
2023-05-24T11:42:35.281Z,96908.38
2023-05-24T11:45:03.695Z,96864.63
2023-05-24T11:47:38.628Z,96821.06
2023-05-24T11:50:08.601Z,96906.59
2023-05-24T11:52:43.287Z,96899.94
2023-05-24T11:55:17.075Z,96870.53
2023-05-24T11:57:56.029Z,96817.84
2023-05-24T12:00:28.234Z,96899.38
2023-05-24T12:03:07.545Z,96894.34
2023-05-24T12:05:37.657Z,96904.81
2023-05-24T12:08:09.222Z,96864.66
2023-05-24T12:10:40.713Z,96847.88
2023-05-24T12:13:22.618Z,96862.09
2023-05-24T12:15:55.009Z,96884.00
2023-05-24T12:18:27.264Z,96875.75
2023-05-24T12:20:55.849Z,96860.81
2023-05-24T12:23:27.687Z,96884.47
2023-05-24T12:26:00.652Z,96887.19
2023-05-24T12:28:29.172Z,96714.50
2023-05-24T12:30:57.657Z,96851.63
2023-05-24T12:33:27.391Z,96863.66
2023-05-24T12:35:56.322Z,96898.00
2023-05-24T12:38:26.190Z,96786.56
2023-05-24T12:41:11.418Z,96819.91
2023-05-24T12:43:41.643Z,96847.22
2023-05-24T12:46:09.873Z,96830.44
2023-05-24T12:48:39.662Z,96821.25
2023-05-24T12:51:08.762Z,96826.44
2023-05-24T12:53:37.099Z,96854.75
2023-05-24T12:56:05.850Z,96807.50
2023-05-24T12:58:34.102Z,96812.00
2023-05-24T13:01:02.867Z,96793.34
2023-05-24T13:03:31.178Z,96759.63
2023-05-24T13:06:02.901Z,96832.19
2023-05-24T13:08:31.170Z,96817.66
2023-05-24T13:10:59.434Z,96821.28
2023-05-24T13:13:28.938Z,96821.44
2023-05-24T13:15:57.636Z,96796.06
2023-05-24T13:18:26.331Z,96795.53
2023-05-24T13:20:54.847Z,96785.44
2023-05-24T13:23:24.907Z,96838.31
2023-05-24T13:25:53.770Z,96861.22
2023-05-24T13:28:22.161Z,96790.94
2023-05-24T13:30:50.525Z,96847.41
2023-05-24T13:33:18.934Z,96800.53
2023-05-24T13:35:47.186Z,96836.94
2023-05-24T13:38:15.508Z,96841.38
2023-05-24T13:40:46.937Z,96813.38
2023-05-24T13:43:15.703Z,96876.09
2023-05-24T13:45:45.591Z,96761.34
2023-05-24T13:48:13.971Z,96785.81
2023-05-24T13:50:42.463Z,96782.59
2023-05-24T13:53:10.890Z,96783.22
2023-05-24T13:55:40.698Z,96805.97
2023-05-24T13:58:11.022Z,96786.53
2023-05-24T14:00:39.291Z,96788.22
2023-05-24T14:03:07.705Z,96765.09
2023-05-24T14:05:36.828Z,96742.03
2023-05-24T14:08:06.742Z,96822.16
2023-05-24T14:10:37.565Z,96777.16
2023-05-24T14:15:40.013Z,96808.75
2023-05-24T14:18:12.262Z,96784.59
2023-05-24T14:20:41.020Z,96771.13
2023-05-24T14:23:10.356Z,96808.81
2023-05-24T14:25:38.731Z,96766.13
2023-05-24T14:28:08.438Z,96746.09
2023-05-24T14:30:38.610Z,96780.75
2023-05-24T14:33:11.427Z,96775.97
2023-05-24T14:35:40.502Z,96746.41
2023-05-24T14:38:10.113Z,96832.28
2023-05-24T14:40:40.062Z,96824.72
2023-05-24T14:43:10.670Z,96768.78
2023-05-24T14:45:41.273Z,96786.59
2023-05-24T14:48:12.805Z,96749.78
2023-05-24T14:50:42.430Z,96820.91
2023-05-24T14:53:12.328Z,96826.88
2023-05-24T14:55:42.817Z,96810.47
2023-05-24T14:58:12.684Z,96799.22
2023-05-24T15:00:42.573Z,96737.94
2023-05-24T15:03:14.573Z,96824.34
2023-05-24T15:05:43.232Z,96851.84
2023-05-24T15:08:12.217Z,96795.91
2023-05-24T15:10:40.920Z,96854.25
2023-05-24T15:13:09.408Z,96812.03
2023-05-24T15:15:37.784Z,96779.97
2023-05-24T15:18:06.651Z,96844.81
2023-05-24T15:20:36.573Z,96828.84
2023-05-24T15:23:05.489Z,96766.88
2023-05-24T15:25:33.753Z,96759.53
2023-05-24T15:28:03.140Z,96801.41
2023-05-24T15:30:31.622Z,96804.63
2023-05-24T15:32:59.924Z,96816.38
2023-05-24T15:35:28.191Z,96826.19
2023-05-24T15:37:57.802Z,96840.81
2023-05-24T15:40:26.282Z,96816.25
2023-05-24T15:42:54.553Z,96722.41
2023-05-24T15:45:22.826Z,96767.50
2023-05-24T15:47:51.105Z,96795.47
2023-05-24T15:50:28.481Z,96825.50
2023-05-24T15:53:01.655Z,96842.41
2023-05-24T15:55:30.094Z,96751.53
2023-05-24T15:57:59.288Z,96831.91
2023-05-24T16:00:27.664Z,96808.78
2023-05-24T16:02:57.085Z,96767.13
2023-05-24T16:05:26.951Z,96823.88
2023-05-24T16:07:55.223Z,96824.88
2023-05-24T16:10:24.930Z,96834.50
2023-05-24T16:12:53.183Z,96829.66
2023-05-24T16:15:21.426Z,96795.91
2023-05-24T16:17:49.716Z,96837.84
2023-05-24T16:20:18.024Z,96818.38
2023-05-24T16:22:49.893Z,96824.06
2023-05-24T16:25:18.198Z,96824.03
2023-05-24T16:27:47.875Z,96798.69
2023-05-24T16:30:16.486Z,96814.41
2023-05-24T16:32:46.352Z,96779.16
2023-05-24T16:35:14.792Z,96740.22
2023-05-24T16:37:43.456Z,96757.75
2023-05-24T16:40:13.114Z,96845.34
2023-05-24T16:42:41.357Z,96804.84
2023-05-24T16:45:12.235Z,96779.34
2023-05-24T16:47:40.592Z,96790.84
2023-05-24T16:50:14.843Z,96790.91
2023-05-24T16:52:43.287Z,96825.19
2023-05-24T16:55:13.446Z,96817.38
2023-05-24T16:57:41.890Z,96836.00
2023-05-24T17:00:14.421Z,96809.16
2023-05-24T17:02:42.730Z,96772.78
2023-05-24T17:05:11.766Z,96805.88
2023-05-24T17:07:40.367Z,96853.22
2023-05-24T17:10:10.070Z,96827.63
2023-05-24T17:12:38.552Z,96752.84
2023-05-24T17:15:08.016Z,96861.78
2023-05-24T17:17:37.721Z,96811.66
2023-05-24T17:20:07.372Z,96804.84
2023-05-24T17:22:35.687Z,96762.88
2023-05-24T17:25:04.303Z,96860.59
2023-05-24T17:27:32.657Z,96832.44
2023-05-24T17:30:01.588Z,96804.25
2023-05-24T17:32:29.913Z,96821.31
2023-05-24T17:34:59.659Z,96849.53
2023-05-24T17:37:27.930Z,96844.81
2023-05-24T17:39:56.197Z,96861.53
2023-05-24T17:42:24.951Z,96826.88
2023-05-24T17:44:53.271Z,96823.97
2023-05-24T17:47:21.495Z,96823.50
2023-05-24T17:49:49.842Z,96827.25
2023-05-24T17:52:20.029Z,96812.09
2023-05-24T17:54:49.436Z,96887.53
2023-05-24T17:57:17.835Z,96806.13
2023-05-24T17:59:46.087Z,96860.19
2023-05-24T18:02:39.598Z,96861.19
2023-05-24T18:05:11.273Z,96862.63
2023-05-24T18:07:41.031Z,96826.22
2023-05-24T18:10:10.149Z,96657.69
2023-05-24T18:12:38.669Z,96892.78
2023-05-24T18:15:08.586Z,96814.97
2023-05-24T18:17:37.077Z,96855.00
2023-05-24T18:20:06.802Z,96828.75
2023-05-24T18:22:35.098Z,96888.28
2023-05-24T18:25:05.005Z,96873.41
2023-05-24T18:27:33.249Z,96856.53
2023-05-24T18:30:01.572Z,96851.25
2023-05-24T18:32:29.999Z,96902.69
2023-05-24T18:34:58.345Z,96857.72
2023-05-24T18:37:26.874Z,96923.47
2023-05-24T18:39:55.118Z,96826.34
2023-05-24T18:42:24.724Z,96826.41
2023-05-24T18:44:53.809Z,96869.19
2023-05-24T18:47:22.103Z,96812.53
2023-05-24T18:49:50.494Z,96887.41
2023-05-24T18:52:19.619Z,96835.25
2023-05-24T18:54:47.858Z,96825.69
2023-05-24T18:57:16.758Z,96917.25
2023-05-24T18:59:46.373Z,96820.19
2023-05-24T19:02:14.701Z,96865.41
2023-05-24T19:04:47.926Z,96871.88
2023-05-24T19:07:16.365Z,96899.22
2023-05-24T19:09:44.989Z,96853.00
2023-05-24T19:12:13.266Z,96898.59
2023-05-24T19:14:42.099Z,96877.81
2023-05-24T19:17:11.689Z,96850.41
2023-05-24T19:19:40.009Z,96845.84
2023-05-24T19:22:08.287Z,96913.88
2023-05-24T19:24:36.556Z,96897.41
2023-05-24T19:27:05.115Z,96897.13
2023-05-24T19:29:34.473Z,96884.09
2023-05-24T19:32:02.729Z,96900.75
2023-05-24T19:34:35.135Z,96898.31
2023-05-24T19:37:03.545Z,96938.19
2023-05-24T19:39:31.759Z,96876.84
2023-05-24T19:42:00.022Z,96903.69
2023-05-24T19:44:28.285Z,96952.50
2023-05-24T19:46:56.558Z,96918.16
2023-05-24T19:49:25.287Z,96960.38
2023-05-24T19:51:54.956Z,96937.25
2023-05-24T19:54:24.082Z,96874.97
2023-05-24T19:56:52.678Z,96876.44
2023-05-24T19:59:21.728Z,96896.38
2023-05-24T20:01:54.000Z,96938.53
2023-05-24T20:04:28.347Z,96927.75
2023-05-24T20:06:58.016Z,96935.88
2023-05-24T20:09:26.389Z,96914.97
2023-05-24T20:11:54.639Z,96964.44
2023-05-24T20:14:23.376Z,96877.13
2023-05-24T20:16:51.810Z,96934.94
2023-05-24T20:19:20.144Z,96924.53
2023-05-24T20:21:48.543Z,96953.84
2023-05-24T20:24:18.188Z,96932.25
2023-05-24T20:26:46.547Z,96927.03
2023-05-24T20:29:14.888Z,96957.03
2023-05-24T20:31:43.171Z,96934.50
2023-05-24T20:34:11.502Z,96881.00
2023-05-24T20:36:40.891Z,96921.56
2023-05-24T20:39:10.303Z,96880.38
2023-05-24T20:41:39.892Z,96926.41
2023-05-24T20:44:08.623Z,96938.09
2023-05-24T20:46:37.875Z,96901.44
2023-05-24T20:49:06.137Z,96934.00
2023-05-24T20:51:34.631Z,96985.13
2023-05-24T20:54:03.107Z,96942.56
2023-05-24T20:56:31.370Z,96945.25
2023-05-24T20:59:02.182Z,96920.88
2023-05-24T21:01:30.525Z,96931.03
2023-05-24T21:03:58.800Z,96950.53
2023-05-24T21:06:27.129Z,96947.22
2023-05-24T21:08:56.672Z,96914.50
2023-05-24T21:11:25.039Z,96961.47
2023-05-24T21:13:53.299Z,96953.84
2023-05-24T21:16:23.219Z,96935.47
2023-05-24T21:18:52.060Z,96902.50
2023-05-24T21:21:20.394Z,96946.53
2023-05-24T21:23:48.751Z,96982.88
2023-05-24T21:26:17.116Z,96940.41
2023-05-24T21:28:46.326Z,96961.41
2023-05-24T21:31:14.688Z,96924.34
2023-05-24T21:33:44.562Z,97025.81
2023-05-24T21:36:12.875Z,96932.22
2023-05-24T21:38:41.151Z,96967.59
2023-05-24T21:41:09.580Z,96971.16
2023-05-24T21:43:41.504Z,96957.44
2023-05-24T21:46:09.868Z,96992.75
2023-05-24T21:48:38.164Z,96930.28
2023-05-24T21:51:07.954Z,96978.19
2023-05-24T21:53:36.368Z,96943.28
2023-05-24T21:56:04.635Z,96930.81
2023-05-24T21:58:33.185Z,96931.41
2023-05-24T22:01:01.462Z,96943.28
2023-05-24T22:03:29.804Z,96948.22
2023-05-24T22:05:58.202Z,96972.13
2023-05-24T22:08:30.264Z,96988.50
2023-05-24T22:10:58.868Z,96904.22
2023-05-24T22:13:27.255Z,96979.38
2023-05-24T22:15:55.658Z,96969.19
2023-05-24T22:18:27.497Z,96926.69
2023-05-24T22:20:58.299Z,96941.69
2023-05-24T22:23:28.125Z,96919.91
2023-05-24T22:25:56.556Z,96939.28
2023-05-24T22:28:24.922Z,96975.59
2023-05-24T22:30:53.350Z,96927.13
2023-05-24T22:33:21.649Z,96966.88
2023-05-24T22:35:49.932Z,96978.88
2023-05-24T22:38:18.267Z,96916.00
2023-05-24T22:40:47.850Z,97014.69
2023-05-24T22:43:16.208Z,96960.47
2023-05-24T22:45:44.894Z,96988.53
2023-05-24T22:48:13.380Z,96971.88
2023-05-24T22:50:42.267Z,96977.16
2023-05-24T22:53:10.558Z,96974.09
2023-05-24T22:55:38.824Z,96902.56
2023-05-24T22:58:08.710Z,96951.75
2023-05-24T23:00:38.048Z,96955.34
2023-05-24T23:03:07.666Z,96989.94
2023-05-24T23:05:36.605Z,96961.19
2023-05-24T23:08:04.871Z,96927.84
2023-05-24T23:10:33.121Z,96994.47
2023-05-24T23:13:04.135Z,96986.59
2023-05-24T23:15:33.784Z,96958.34
2023-05-24T23:18:02.935Z,96914.50
2023-05-24T23:20:31.320Z,96960.13
2023-05-24T23:23:02.788Z,96955.06
2023-05-24T23:25:56.244Z,96943.25
2023-05-24T23:28:24.559Z,96956.13
2023-05-24T23:30:54.544Z,96972.53
2023-05-24T23:33:22.972Z,96940.63
2023-05-24T23:35:51.279Z,96981.50
2023-05-24T23:38:19.527Z,96955.34
2023-05-24T23:40:47.761Z,96954.16
2023-05-24T23:43:16.091Z,96972.13
2023-05-24T23:45:44.775Z,96933.34
2023-05-24T23:48:15.029Z,96990.53
2023-05-24T23:50:53.526Z,96959.63
2023-05-24T23:53:22.811Z,96958.53
2023-05-24T23:55:51.118Z,96913.59
2023-05-24T23:58:19.427Z,96953.19
